Time;durP1;ratioP1;P1;durP2;ratioP2;P2;SDS_P1;SDS_P2;PMS_P1;PMS_P2;Temp;Humidity;BMP_temperature;BMP_pressure;BME280_temperature;BME280_humidity;BME280_pressure;Samples;Min_cycle;Max_cycle;Signal;HPM_P1;HPM_P2
2023/01/02 00:02:01;;;;;;;;;;;;;;;-146.02;100.00;65310.94;5074062;28;19912;-71
2023/01/02 00:04:26;;;;;;;;;;;;;;;-146.02;100.00;65310.94;5052499;28;20000;-70
2023/01/02 00:06:51;;;;;;;;;;;;;;;-146.02;100.00;65310.94;5072370;28;19974;-70
2023/01/02 00:09:17;;;;;;;;;;;;;;;-146.02;100.00;65310.94;5068778;28;19924;-69
2023/01/02 00:11:42;;;;;;;;;;;;;;;-146.02;100.00;65310.94;5071713;28;19913;-67
2023/01/02 00:14:08;;;;;;;;;;;;;;;-146.02;100.00;65310.94;5065014;28;19913;-67
2023/01/02 00:16:33;;;;;;;;;;;;;;;-146.02;100.00;65310.94;5068162;28;19913;-70
2023/01/02 00:18:58;;;;;;;;;;;;;;;-146.02;100.00;65310.94;5071520;28;19920;-70
2023/01/02 00:21:23;;;;;;;;;;;;;;;-146.02;100.00;65310.94;5073264;28;19981;-70
2023/01/02 00:23:49;;;;;;;;;;;;;;;-146.02;100.00;65310.94;5071672;28;19942;-69
2023/01/02 00:26:14;;;;;;;;;;;;;;;-146.02;100.00;65310.94;5072522;28;19912;-69
2023/01/02 00:28:39;;;;;;;;;;;;;;;-146.02;100.00;65310.94;5068296;28;19912;-69
2023/01/02 00:31:05;;;;;;;;;;;;;;;-146.02;100.00;65310.94;5072830;28;20387;-69
2023/01/02 00:33:30;;;;;;;;;;;;;;;-146.02;100.00;65310.94;5071416;28;20276;-69
2023/01/02 00:35:56;;;;;;;;;;;;;;;-146.02;100.00;65310.94;5062289;28;19913;-69
2023/01/02 00:38:21;;;;;;;;;;;;;;;-146.02;100.00;65310.94;5077811;28;20404;-69
2023/01/02 00:40:46;;;;;;;;;;;;;;;-146.02;100.00;65310.94;5071389;28;19912;-64
2023/01/02 00:43:12;;;;;;;;;;;;;;;-146.02;100.00;65310.94;5072517;28;19928;-65
2023/01/02 00:45:37;;;;;;;;;;;;;;;-146.02;100.00;65310.94;5071989;28;19913;-64
2023/01/02 00:48:02;;;;;;;;;;;;;;;-146.02;100.00;65310.94;5070081;28;19979;-65
2023/01/02 00:50:27;;;;;;;;;;;;;;;-146.02;100.00;65310.94;5071103;28;20346;-65
2023/01/02 00:52:53;;;;;;;;;;;;;;;-146.02;100.00;65310.94;5069858;28;19948;-63
2023/01/02 00:55:18;;;;;;;;;;;;;;;-146.02;100.00;65310.94;5070473;28;19920;-64
2023/01/02 00:57:43;;;;;;;;;;;;;;;-146.02;100.00;65310.94;5070749;28;19917;-64
2023/01/02 01:00:11;;;;;;;;;;;;;;;-146.02;100.00;65310.94;5056621;28;19953;-64
2023/01/02 01:02:36;;;;;;;;;;;;;;;-146.02;100.00;65310.94;5072778;28;19971;-66
2023/01/02 01:05:01;;;;;;;;;;;;;;;-146.02;100.00;65310.94;5070377;28;19913;-66
2023/01/02 01:07:28;;;;;;;;;;;;;;;-146.02;100.00;65310.94;5068732;28;19925;-66
2023/01/02 01:09:53;;;;;;;;;;;;;;;-146.02;100.00;65310.94;5072764;28;19920;-66
2023/01/02 01:12:18;;;;;;;;;;;;;;;-146.02;100.00;65310.94;5075060;28;19969;-66
2023/01/02 01:14:43;;;;;;;;;;;;;;;-146.02;100.00;65310.94;5071575;28;19969;-66
2023/01/02 01:17:09;;;;;;;;;;;;;;;-146.02;100.00;65310.94;5068954;28;20444;-67
2023/01/02 01:19:34;;;;;;;;;;;;;;;-146.02;100.00;65310.94;5053572;28;20335;-65
2023/01/02 01:21:59;;;;;;;;;;;;;;;-146.02;100.00;65310.94;5061767;28;20014;-68
2023/01/02 01:24:25;;;;;;;;;;;;;;;-146.02;100.00;65310.94;5068235;28;20360;-68
2023/01/02 01:26:50;;;;;;;;;;;;;;;-146.02;100.00;65310.94;5069382;28;20622;-69
2023/01/02 01:29:16;;;;;;;;;;;;;;;-146.02;100.00;65310.94;5069660;28;19912;-67
2023/01/02 01:31:41;;;;;;;;;;;;;;;-146.02;100.00;65310.94;5069133;28;19950;-67
2023/01/02 01:34:06;;;;;;;;;;;;;;;-146.02;100.00;65310.94;5070165;28;19965;-67
2023/01/02 01:36:33;;;;;;;;;;;;;;;-146.02;100.00;65310.94;5068923;28;20015;-68
2023/01/02 01:38:58;;;;;;;;;;;;;;;-146.02;100.00;65310.94;5072089;28;20372;-68
2023/01/02 01:41:24;;;;;;;;;;;;;;;-146.02;100.00;65310.94;5069953;28;19924;-67
2023/01/02 01:43:54;;;;;;;;;;;;;;;-146.02;100.00;65310.94;5069694;28;20307;-68
2023/01/02 01:46:26;;;;;;;;;;;;;;;-146.02;100.00;65310.94;5071572;28;20065;-65
2023/01/02 01:49:11;;;;;;;;;;;;;;;-146.02;100.00;65310.94;5068800;28;20009;-65
2023/01/02 01:51:39;;;;;;;;;;;;;;;-146.02;100.00;65310.94;5070492;28;19951;-66
2023/01/02 01:54:06;;;;;;;;;;;;;;;-146.02;100.00;65310.94;5070603;28;19916;-65
2023/01/02 01:56:34;;;;;;;;;;;;;;;-146.02;100.00;65310.94;5068431;28;19923;-64
2023/01/02 01:59:00;;;;;;;;;;;;;;;-146.02;100.00;65310.94;5072074;28;19962;-64
2023/01/02 02:01:25;;;;;;;;;;;;;;;-146.02;100.00;65310.94;5070536;28;19917;-65
2023/01/02 02:03:50;;;;;;;;;;;;;;;-146.02;100.00;65310.94;5066600;28;19931;-65
2023/01/02 02:06:16;;;;;;;;;;;;;;;-146.02;100.00;65310.94;5063643;28;19990;-64
2023/01/02 02:09:02;;;;;;;;;;;;;;;-146.02;100.00;65310.94;5071137;28;19919;-64
2023/01/02 02:11:27;;;;;;;;;;;;;;;-146.02;100.00;65310.94;5059998;28;19924;-69
2023/01/02 02:13:57;;;;;;;;;;;;;;;-146.02;100.00;65310.94;5070415;28;19919;-68
2023/01/02 02:16:27;;;;;;;;;;;;;;;-146.02;100.00;65310.94;5070662;28;19919;-69
2023/01/02 02:18:58;;;;;;;;;;;;;;;-146.02;100.00;65310.94;5069421;28;19974;-69
2023/01/02 02:21:26;;;;;;;;;;;;;;;-146.02;100.00;65310.94;5061533;28;19913;-68
2023/01/02 02:23:51;;;;;;;;;;;;;;;-146.02;100.00;65310.94;5070286;28;20367;-69
2023/01/02 02:26:28;;;;;;;;;;;;;;;-146.02;100.00;65310.94;5072361;28;19944;-67
2023/01/02 02:29:12;;;;;;;;;;;;;;;-146.02;100.00;65310.94;5072506;28;19920;-68
2023/01/02 02:31:40;;;;;;;;;;;;;;;-146.02;100.00;65310.94;5072202;28;19923;-69
2023/01/02 02:34:12;;;;;;;;;;;;;;;-146.02;100.00;65310.94;5074473;28;20352;-69
2023/01/02 02:36:37;;;;;;;;;;;;;;;-146.02;100.00;65310.94;5074739;28;19951;-69
2023/01/02 02:39:02;;;;;;;;;;;;;;;-146.02;100.00;65310.94;5074069;28;19952;-68
2023/01/02 02:41:28;;;;;;;;;;;;;;;-146.02;100.00;65310.94;5072039;28;20014;-68
2023/01/02 02:44:04;;;;;;;;;;;;;;;-146.02;100.00;65310.94;5071676;28;19962;-69
2023/01/02 02:46:52;;;;;;;;;;;;;;;-146.02;100.00;65310.94;5073756;28;19927;-69
2023/01/02 02:49:26;;;;;;;;;;;;;;;-146.02;100.00;65310.94;5071601;28;19916;-69
2023/01/02 02:51:57;;;;;;;;;;;;;;;-146.02;100.00;65310.94;5051443;28;19921;-68
2023/01/02 02:54:30;;;;;;;;;;;;;;;-146.02;100.00;65310.94;5070971;28;19913;-67
2023/01/02 02:56:56;;;;;;;;;;;;;;;-146.02;100.00;65310.94;5071778;28;20470;-67
2023/01/02 02:59:22;;;;;;;;;;;;;;;-146.02;100.00;65310.94;5061555;28;20015;-66
2023/01/02 03:01:47;;;;;;;;;;;;;;;-146.02;100.00;65310.94;5071980;28;19974;-64
2023/01/02 03:04:22;;;;;;;;;;;;;;;-146.02;100.00;65310.94;5073881;28;19920;-67
2023/01/02 03:06:47;;;;;;;;;;;;;;;-146.02;100.00;65310.94;5073475;28;19916;-66
2023/01/02 03:09:30;;;;;;;;;;;;;;;-146.02;100.00;65310.94;5071337;28;19919;-66
2023/01/02 03:12:06;;;;;;;;;;;;;;;-146.02;100.00;65310.94;5073832;28;20426;-66
2023/01/02 03:14:38;;;;;;;;;;;;;;;-146.02;100.00;65310.94;5071224;28;19962;-67
2023/01/02 03:17:15;;;;;;;;;;;;;;;-146.02;100.00;65310.94;5067743;28;20373;-66
2023/01/02 03:19:42;;;;;;;;;;;;;;;-146.02;100.00;65310.94;5060962;28;19931;-66
2023/01/02 03:22:11;;;;;;;;;;;;;;;-146.02;100.00;65310.94;5055990;28;19939;-66
2023/01/02 03:24:37;;;;;;;;;;;;;;;-146.02;100.00;65310.94;5073636;28;19952;-66
2023/01/02 03:27:05;;;;;;;;;;;;;;;-146.02;100.00;65310.94;5072472;28;19913;-67
2023/01/02 03:29:38;;;;;;;;;;;;;;;-146.02;100.00;65310.94;5055986;28;20404;-67
2023/01/02 03:32:06;;;;;;;;;;;;;;;-146.02;100.00;65310.94;5070330;28;19963;-66
2023/01/02 03:34:34;;;;;;;;;;;;;;;-146.02;100.00;65310.94;5072818;28;20280;-69
2023/01/02 03:37:06;;;;;;;;;;;;;;;-146.02;100.00;65310.94;5065897;28;19917;-69
2023/01/02 03:39:34;;;;;;;;;;;;;;;-146.02;100.00;65310.94;5061867;28;20261;-71
2023/01/02 03:42:02;;;;;;;;;;;;;;;-146.02;100.00;65310.94;5052967;28;19927;-71
2023/01/02 03:44:31;;;;;;;;;;;;;;;-146.02;100.00;65310.94;5056299;28;19969;-71
2023/01/02 03:46:56;;;;;;;;;;;;;;;-146.02;100.00;65310.94;5074732;28;19916;-72
2023/01/02 03:49:23;;;;;;;;;;;;;;;-146.02;100.00;65310.94;5056496;28;19984;-72
2023/01/02 03:51:49;;;;;;;;;;;;;;;-146.02;100.00;65310.94;5074144;28;19919;-71
2023/01/02 03:54:15;;;;;;;;;;;;;;;-146.02;100.00;65310.94;5074223;28;19917;-72
2023/01/02 03:56:44;;;;;;;;;;;;;;;-146.02;100.00;65310.94;5074955;28;20015;-72
2023/01/02 03:59:12;;;;;;;;;;;;;;;-146.02;100.00;65310.94;5074762;28;19912;-72
2023/01/02 04:01:41;;;;;;;;;;;;;;;-146.02;100.00;65310.94;5073974;28;19912;-72
2023/01/02 04:04:11;;;;;;;;;;;;;;;-146.02;100.00;65310.94;5074664;28;20370;-72
2023/01/02 04:06:38;;;;;;;;;;;;;;;-146.02;100.00;65310.94;5074694;28;20292;-72
2023/01/02 04:09:09;;;;;;;;;;;;;;;-146.02;100.00;65310.94;5056909;28;19913;-72
2023/01/02 04:11:36;;;;;;;;;;;;;;;-146.02;100.00;65310.94;5056773;28;19939;-72
2023/01/02 04:14:06;;;;;;;;;;;;;;;-146.02;100.00;65310.94;5078654;28;19916;-72
2023/01/02 04:16:34;;;;;;;;;;;;;;;-146.02;100.00;65310.94;5074324;28;20399;-72
2023/01/02 04:19:02;;;;;;;;;;;;;;;-146.02;100.00;65310.94;5074342;28;20387;-72
2023/01/02 04:21:29;;;;;;;;;;;;;;;-146.02;100.00;65310.94;5056512;28;19940;-72
2023/01/02 04:23:57;;;;;;;;;;;;;;;-146.02;100.00;65310.94;5074196;28;20287;-72
2023/01/02 04:26:26;;;;;;;;;;;;;;;-146.02;100.00;65310.94;5074400;28;20262;-71
2023/01/02 04:28:52;;;;;;;;;;;;;;;-146.02;100.00;65310.94;5073056;28;19917;-71
2023/01/02 04:31:30;;;;;;;;;;;;;;;-146.02;100.00;65310.94;5073962;28;20003;-71
2023/01/02 04:33:57;;;;;;;;;;;;;;;-146.02;100.00;65310.94;5074245;28;19913;-71
2023/01/02 04:36:23;;;;;;;;;;;;;;;-146.02;100.00;65310.94;5074238;28;19951;-71
2023/01/02 04:38:48;;;;;;;;;;;;;;;-146.02;100.00;65310.94;5041901;28;19967;-71
2023/01/02 04:41:17;;;;;;;;;;;;;;;-146.02;100.00;65310.94;5053964;28;19917;-71
2023/01/02 04:43:42;;;;;;;;;;;;;;;-146.02;100.00;65310.94;5054161;28;20373;-71
2023/01/02 04:46:09;;;;;;;;;;;;;;;-146.02;100.00;65310.94;5054388;28;19919;-71
2023/01/02 04:48:34;;;;;;;;;;;;;;;-146.02;100.00;65310.94;5053368;28;20003;-71
2023/01/02 04:50:59;;;;;;;;;;;;;;;-146.02;100.00;65310.94;5036172;28;19956;-70
2023/01/02 04:53:24;;;;;;;;;;;;;;;-146.02;100.00;65310.94;5035894;28;19920;-71
2023/01/02 04:55:58;;;;;;;;;;;;;;;-146.02;100.00;65310.94;5053811;28;19913;-71
2023/01/02 04:58:25;;;;;;;;;;;;;;;-146.02;100.00;65310.94;5053578;28;19920;-70
2023/01/02 05:00:50;;;;;;;;;;;;;;;-146.02;100.00;65310.94;5036004;28;19940;-71
2023/01/02 05:03:16;;;;;;;;;;;;;;;-146.02;100.00;65310.94;5035963;28;19916;-71
2023/01/02 05:05:41;;;;;;;;;;;;;;;-146.02;100.00;65310.94;5053622;28;19913;-71
2023/01/02 05:08:06;;;;;;;;;;;;;;;-146.02;100.00;65310.94;5053815;28;19913;-71
2023/01/02 05:10:31;;;;;;;;;;;;;;;-146.02;100.00;65310.94;5036506;28;20353;-71
2023/01/02 05:12:57;;;;;;;;;;;;;;;-146.02;100.00;65310.94;5074381;28;19935;-70
2023/01/02 05:15:23;;;;;;;;;;;;;;;-146.02;100.00;65310.94;5073408;28;19913;-70
2023/01/02 05:17:48;;;;;;;;;;;;;;;-146.02;100.00;65310.94;5055378;28;19912;-70
2023/01/02 05:20:13;;;;;;;;;;;;;;;-146.02;100.00;65310.94;5055555;28;20004;-70
2023/01/02 05:25:24;;;;;;;;;;;;;;;-146.02;100.00;65310.94;5073429;28;19920;-71
2023/01/02 05:27:53;;;;;;;;;;;;;;;-146.02;100.00;65310.94;5067080;28;20335;-71
2023/01/02 05:30:18;;;;;;;;;;;;;;;-146.02;100.00;65310.94;5053163;28;19952;-71
2023/01/02 05:32:44;;;;;;;;;;;;;;;-146.02;100.00;65310.94;5052810;28;19920;-71
2023/01/02 05:35:09;;;;;;;;;;;;;;;-146.02;100.00;65310.94;5053365;28;19963;-71
2023/01/02 05:37:34;;;;;;;;;;;;;;;-146.02;100.00;65310.94;5064877;28;20386;-71
2023/01/02 05:40:00;;;;;;;;;;;;;;;-146.02;100.00;65310.94;5073073;28;20123;-71
2023/01/02 05:42:25;;;;;;;;;;;;;;;-146.02;100.00;65310.94;5054941;28;20304;-71
2023/01/02 05:44:51;;;;;;;;;;;;;;;-146.02;100.00;65310.94;5073137;28;20375;-71
2023/01/02 05:47:16;;;;;;;;;;;;;;;-146.02;100.00;65310.94;5072983;28;19913;-71
2023/01/02 05:49:41;;;;;;;;;;;;;;;-146.02;100.00;65310.94;5072982;28;20019;-71
2023/01/02 05:52:07;;;;;;;;;;;;;;;-146.02;100.00;65310.94;5054813;28;20356;-71
2023/01/02 05:54:32;;;;;;;;;;;;;;;-146.02;100.00;65310.94;5054774;28;19912;-72
2023/01/02 05:56:57;;;;;;;;;;;;;;;-146.02;100.00;65310.94;5073097;28;20368;-72
2023/01/02 05:59:22;;;;;;;;;;;;;;;-146.02;100.00;65310.94;5075001;28;19920;-71
2023/01/02 06:01:48;;;;;;;;;;;;;;;-146.02;100.00;65310.94;5077294;28;19913;-71
2023/01/02 06:04:13;;;;;;;;;;;;;;;-146.02;100.00;65310.94;5076982;28;19916;-71
2023/01/02 06:06:39;;;;;;;;;;;;;;;-146.02;100.00;65310.94;5064073;28;19917;-71
2023/01/02 06:09:04;;;;;;;;;;;;;;;-146.02;100.00;65310.94;5057012;28;20321;-72
2023/01/02 06:11:30;;;;;;;;;;;;;;;-146.02;100.00;65310.94;5057537;28;19920;-71
2023/01/02 06:13:55;;;;;;;;;;;;;;;-146.02;100.00;65310.94;5087632;28;19942;-71
2023/01/02 06:16:21;;;;;;;;;;;;;;;-146.02;100.00;65310.94;5078848;28;20003;-71
2023/01/02 06:18:47;;;;;;;;;;;;;;;-146.02;100.00;65310.94;5077092;28;19916;-72
2023/01/02 06:21:14;;;;;;;;;;;;;;;-146.02;100.00;65310.94;5058543;28;19923;-72
2023/01/02 06:23:39;;;;;;;;;;;;;;;-146.02;100.00;65310.94;5076603;28;19916;-72
2023/01/02 06:26:06;;;;;;;;;;;;;;;-146.02;100.00;65310.94;5058780;28;20000;-72
2023/01/02 06:28:32;;;;;;;;;;;;;;;-146.02;100.00;65310.94;5076548;28;19919;-71
2023/01/02 06:30:59;;;;;;;;;;;;;;;-146.02;100.00;65310.94;5076508;28;19999;-71
2023/01/02 06:33:24;;;;;;;;;;;;;;;-146.02;100.00;65310.94;5075923;28;19912;-71
2023/01/02 06:35:55;;;;;;;;;;;;;;;-146.02;100.00;65310.94;5074618;28;19913;-71
2023/01/02 06:38:20;;;;;;;;;;;;;;;-146.02;100.00;65310.94;5074422;28;19935;-71
2023/01/02 06:40:56;;;;;;;;;;;;;;;-146.02;100.00;65310.94;5056651;28;20370;-71
2023/01/02 06:43:22;;;;;;;;;;;;;;;-146.02;100.00;65310.94;5038175;28;19924;-71
2023/01/02 06:45:48;;;;;;;;;;;;;;;-146.02;100.00;65310.94;5056223;28;19916;-71
2023/01/02 06:48:13;;;;;;;;;;;;;;;-146.02;100.00;65310.94;5038185;28;19913;-71
2023/01/02 06:50:38;;;;;;;;;;;;;;;-146.02;100.00;65310.94;5038096;28;19966;-70
2023/01/02 06:53:03;;;;;;;;;;;;;;;-146.02;100.00;65310.94;5037778;28;19913;-71
2023/01/02 06:55:29;;;;;;;;;;;;;;;-146.02;100.00;65310.94;5055841;28;20330;-70
2023/01/02 06:57:54;;;;;;;;;;;;;;;-146.02;100.00;65310.94;5056116;28;19920;-70
2023/01/02 07:00:19;;;;;;;;;;;;;;;-146.02;100.00;65310.94;5038283;28;19913;-70
2023/01/02 07:02:45;;;;;;;;;;;;;;;-146.02;100.00;65310.94;5056671;28;20110;-71
2023/01/02 07:05:11;;;;;;;;;;;;;;;-146.02;100.00;65310.94;5056328;28;19913;-70
2023/01/02 07:07:36;;;;;;;;;;;;;;;-146.02;100.00;65310.94;5059806;28;19942;-70
2023/01/02 07:10:02;;;;;;;;;;;;;;;-146.02;100.00;65310.94;5074939;28;19912;-70
2023/01/02 07:12:27;;;;;;;;;;;;;;;-146.02;100.00;65310.94;5081691;28;19912;-71
2023/01/02 07:14:52;;;;;;;;;;;;;;;-146.02;100.00;65310.94;5079480;28;19919;-71
2023/01/02 07:17:18;;;;;;;;;;;;;;;-146.02;100.00;65310.94;5075219;28;19919;-71
2023/01/02 07:19:43;;;;;;;;;;;;;;;-146.02;100.00;65310.94;5075296;28;20007;-71
2023/01/02 07:22:08;;;;;;;;;;;;;;;-146.02;100.00;65310.94;5075181;28;19958;-71
2023/01/02 07:24:34;;;;;;;;;;;;;;;-146.02;100.00;65310.94;5075105;28;20330;-71
2023/01/02 07:26:59;;;;;;;;;;;;;;;-146.02;100.00;65310.94;5075581;28;19920;-71
2023/01/02 07:29:24;;;;;;;;;;;;;;;-146.02;100.00;65310.94;5075337;28;19913;-71
2023/01/02 07:31:49;;;;;;;;;;;;;;;-146.02;100.00;65310.94;5074596;28;19920;-71
2023/01/02 07:34:14;;;;;;;;;;;;;;;-146.02;100.00;65310.94;5075185;28;20076;-71
2023/01/02 07:36:40;;;;;;;;;;;;;;;-146.02;100.00;65310.94;5079695;28;19912;-71
2023/01/02 07:39:05;;;;;;;;;;;;;;;-146.02;100.00;65310.94;5091866;28;20296;-71
2023/01/02 07:41:31;;;;;;;;;;;;;;;-146.02;100.00;65310.94;5075042;28;19929;-69
2023/01/02 07:43:56;;;;;;;;;;;;;;;-146.02;100.00;65310.94;5048419;28;19985;-69
2023/01/02 07:46:21;;;;;;;;;;;;;;;-146.02;100.00;65310.94;5054931;28;19982;-71
2023/01/02 07:48:47;;;;;;;;;;;;;;;-146.02;100.00;65310.94;5055188;28;19917;-70
2023/01/02 07:51:13;;;;;;;;;;;;;;;-146.02;100.00;65310.94;5054838;28;19912;-72
2023/01/02 07:53:40;;;;;;;;;;;;;;;-146.02;100.00;65310.94;5054634;28;19912;-71
2023/01/02 07:56:05;;;;;;;;;;;;;;;-146.02;100.00;65310.94;5037111;28;19962;-64
2023/01/02 07:58:30;;;;;;;;;;;;;;;-146.02;100.00;65310.94;5055752;28;19999;-64
2023/01/02 08:00:56;;;;;;;;;;;;;;;-146.02;100.00;65310.94;5054390;28;20321;-64
2023/01/02 08:03:22;;;;;;;;;;;;;;;-146.02;100.00;65310.94;5054192;28;20014;-64
2023/01/02 08:05:47;;;;;;;;;;;;;;;-146.02;100.00;65310.94;5054785;28;19939;-64
2023/01/02 08:08:12;;;;;;;;;;;;;;;-146.02;100.00;65310.94;5054828;28;19919;-64
2023/01/02 08:10:38;;;;;;;;;;;;;;;-146.02;100.00;65310.94;5054587;28;19939;-64
2023/01/02 08:13:03;;;;;;;;;;;;;;;-146.02;100.00;65310.94;5068585;28;19961;-64
2023/01/02 08:15:29;;;;;;;;;;;;;;;-146.02;100.00;65310.94;5074789;28;20281;-64
2023/01/02 08:17:55;;;;;;;;;;;;;;;-146.02;100.00;65310.94;5074722;28;19913;-64
2023/01/02 08:20:21;;;;;;;;;;;;;;;-146.02;100.00;65310.94;5074339;28;19919;-63
2023/01/02 08:22:46;;;;;;;;;;;;;;;-146.02;100.00;65310.94;5073254;28;20288;-63
2023/01/02 08:25:11;;;;;;;;;;;;;;;-146.02;100.00;65310.94;5056270;28;19912;-63
2023/01/02 08:27:36;;;;;;;;;;;;;;;-146.02;100.00;65310.94;5074453;28;19912;-63
2023/01/02 08:30:02;;;;;;;;;;;;;;;-146.02;100.00;65310.94;5074282;28;20388;-63
2023/01/02 08:32:28;;;;;;;;;;;;;;;-146.02;100.00;65310.94;5073610;28;19917;-63
2023/01/02 08:34:53;;;;;;;;;;;;;;;-146.02;100.00;65310.94;5074120;28;19919;-64
2023/01/02 08:37:18;;;;;;;;;;;;;;;-146.02;100.00;65310.94;5065612;28;19919;-63
2023/01/02 08:39:43;;;;;;;;;;;;;;;-146.02;100.00;65310.94;5085431;28;20338;-64
2023/01/02 08:42:09;;;;;;;;;;;;;;;-146.02;100.00;65310.94;5073722;28;20336;-64
2023/01/02 08:44:36;;;;;;;;;;;;;;;-146.02;100.00;65310.94;5073959;28;19917;-63
2023/01/02 08:47:02;;;;;;;;;;;;;;;-146.02;100.00;65310.94;5073857;28;19919;-64
2023/01/02 08:49:28;;;;;;;;;;;;;;;-146.02;100.00;65310.94;5053890;28;19913;-63
2023/01/02 08:51:53;;;;;;;;;;;;;;;-146.02;100.00;65310.94;5035722;28;20043;-63
2023/01/02 08:54:18;;;;;;;;;;;;;;;-146.02;100.00;65310.94;5054289;28;19913;-64
2023/01/02 08:56:43;;;;;;;;;;;;;;;-146.02;100.00;65310.94;5053417;28;19912;-63
2023/01/02 08:59:10;;;;;;;;;;;;;;;-146.02;100.00;65310.94;5053447;28;19920;-63
2023/01/02 09:01:35;;;;;;;;;;;;;;;-146.02;100.00;65310.94;5053582;28;20011;-63
2023/01/02 09:04:01;;;;;;;;;;;;;;;-146.02;100.00;65310.94;5053363;28;20110;-64
2023/01/02 09:06:27;;;;;;;;;;;;;;;-146.02;100.00;65310.94;5053492;28;19924;-64
2023/01/02 09:08:54;;;;;;;;;;;;;;;-146.02;100.00;65310.94;5063979;28;19917;-64
2023/01/02 09:11:30;;;;;;;;;;;;;;;-146.02;100.00;65310.94;5055403;28;20006;-64
2023/01/02 09:13:56;;;;;;;;;;;;;;;-146.02;100.00;65310.94;5073181;28;19913;-64
2023/01/02 09:16:22;;;;;;;;;;;;;;;-146.02;100.00;65310.94;5073139;28;20007;-64
2023/01/02 09:18:47;;;;;;;;;;;;;;;-146.02;100.00;65310.94;5073183;28;19951;-63
2023/01/02 09:21:13;;;;;;;;;;;;;;;-146.02;100.00;65310.94;5073300;28;19912;-63
2023/01/02 09:23:39;;;;;;;;;;;;;;;-146.02;100.00;65310.94;5073389;28;20294;-63
2023/01/02 09:26:05;;;;;;;;;;;;;;;-146.02;100.00;65310.94;5073361;28;19955;-63
2023/01/02 09:28:32;;;;;;;;;;;;;;;-146.02;100.00;65310.94;5055107;28;19944;-64
2023/01/02 09:30:57;;;;;;;;;;;;;;;-146.02;100.00;65310.94;5073139;28;20098;-64
2023/01/02 09:33:22;;;;;;;;;;;;;;;-146.02;100.00;65310.94;5072516;28;19995;-63
2023/01/02 09:35:47;;;;;;;;;;;;;;;-146.02;100.00;65310.94;5073024;28;20418;-64
2023/01/02 09:38:13;;;;;;;;;;;;;;;-146.02;100.00;65310.94;5080620;28;19913;-64
2023/01/02 09:40:43;;;;;;;;;;;;;;;-146.02;100.00;65310.94;5062809;28;19916;-64
2023/01/02 09:43:09;;;;;;;;;;;;;;;-146.02;100.00;65310.94;5058628;28;19931;-64
2023/01/02 09:45:40;;;;;;;;;;;;;;;-146.02;100.00;65310.94;5052208;28;21341;-64
2023/01/02 09:48:05;;;;;;;;;;;;;;;-146.02;100.00;65310.94;5052649;28;19913;-63
2023/01/02 09:50:30;;;;;;;;;;;;;;;-146.02;100.00;65310.94;5053917;28;19912;-64
2023/01/02 09:52:59;;;;;;;;;;;;;;;-146.02;100.00;65310.94;5052608;28;20448;-62
2023/01/02 09:55:43;;;;;;;;;;;;;;;-146.02;100.00;65310.94;5052648;28;19967;-63
2023/01/02 09:58:21;;;;;;;;;;;;;;;-146.02;100.00;65310.94;5052900;28;19971;-63
2023/01/02 10:00:48;;;;;;;;;;;;;;;-146.02;100.00;65310.94;5035061;28;19912;-64
2023/01/02 10:03:13;;;;;;;;;;;;;;;-146.02;100.00;65310.94;5052455;28;19928;-64
2023/01/02 10:05:57;;;;;;;;;;;;;;;-146.02;100.00;65310.94;5067242;28;19916;-63
2023/01/02 10:08:36;;;;;;;;;;;;;;;-146.02;100.00;65310.94;5072550;28;19920;-64
2023/01/02 10:11:08;;;;;;;;;;;;;;;-146.02;100.00;65310.94;5072815;28;19923;-64
2023/01/02 10:13:40;;;;;;;;;;;;;;;-146.02;100.00;65310.94;5072533;28;19951;-64
2023/01/02 10:16:10;;;;;;;;;;;;;;;-146.02;100.00;65310.94;5072467;28;19913;-64
2023/01/02 10:18:38;;;;;;;;;;;;;;;-146.02;100.00;65310.94;5072347;28;19920;-64
2023/01/02 10:21:14;;;;;;;;;;;;;;;-146.02;100.00;65310.94;5072445;28;19966;-64
2023/01/02 10:23:44;;;;;;;;;;;;;;;-146.02;100.00;65310.94;5054533;28;19917;-64
2023/01/02 10:26:14;;;;;;;;;;;;;;;-146.02;100.00;65310.94;5072358;28;19919;-63
2023/01/02 10:28:51;;;;;;;;;;;;;;;-146.02;100.00;65310.94;5057191;28;19916;-63
2023/01/02 10:31:23;;;;;;;;;;;;;;;-146.02;100.00;65310.94;5069647;28;20433;-64
2023/01/02 10:33:54;;;;;;;;;;;;;;;-146.02;100.00;65310.94;5072400;28;19916;-64
2023/01/02 10:36:19;;;;;;;;;;;;;;;-146.02;100.00;65310.94;5072175;28;19913;-64
2023/01/02 10:38:45;;;;;;;;;;;;;;;-146.02;100.00;65310.94;5072208;28;19920;-64
2023/01/02 10:41:10;;;;;;;;;;;;;;;-146.02;100.00;65310.94;5072418;28;19919;-64
2023/01/02 10:43:35;;;;;;;;;;;;;;;-146.02;100.00;65310.94;5071915;28;20011;-64
2023/01/02 10:46:02;;;;;;;;;;;;;;;-146.02;100.00;65310.94;5073713;28;19980;-64
2023/01/02 10:48:29;;;;;;;;;;;;;;;-146.02;100.00;65310.94;5058585;28;20342;-64
2023/01/02 10:50:55;;;;;;;;;;;;;;;-146.02;100.00;65310.94;5055697;28;20043;-64
2023/01/02 10:53:27;;;;;;;;;;;;;;;-146.02;100.00;65310.94;5055678;28;19959;-64
2023/01/02 10:55:52;;;;;;;;;;;;;;;-146.02;100.00;65310.94;5055910;28;20335;-64
2023/01/02 10:58:25;;;;;;;;;;;;;;;-146.02;100.00;65310.94;5055873;28;19919;-63
2023/01/02 11:00:51;;;;;;;;;;;;;;;-146.02;100.00;65310.94;5061712;28;20008;-64
2023/01/02 11:03:21;;;;;;;;;;;;;;;-146.02;100.00;65310.94;5075525;28;19924;-64
2023/01/02 11:05:50;;;;;;;;;;;;;;;-146.02;100.00;65310.94;5075490;28;19916;-64
2023/01/02 11:08:18;;;;;;;;;;;;;;;-146.02;100.00;65310.94;5075630;28;19913;-64
2023/01/02 11:10:44;;;;;;;;;;;;;;;-146.02;100.00;65310.94;5075940;28;19912;-64
2023/01/02 11:13:11;;;;;;;;;;;;;;;-146.02;100.00;65310.94;5075553;28;20341;-64
2023/01/02 11:15:45;;;;;;;;;;;;;;;-146.02;100.00;65310.94;5075263;28;19912;-64
2023/01/02 11:18:16;;;;;;;;;;;;;;;-146.02;100.00;65310.94;5075716;28;19913;-64
2023/01/02 11:20:46;;;;;;;;;;;;;;;-146.02;100.00;65310.94;5061874;28;19921;-64
2023/01/02 11:23:13;;;;;;;;;;;;;;;-146.02;100.00;65310.94;5073836;28;20280;-64
2023/01/02 11:25:39;;;;;;;;;;;;;;;-146.02;100.00;65310.94;5075504;28;19912;-64
2023/01/02 11:28:05;;;;;;;;;;;;;;;-146.02;100.00;65310.94;5075072;28;19916;-64
2023/01/02 11:30:36;;;;;;;;;;;;;;;-146.02;100.00;65310.94;5075124;28;20045;-64
2023/01/02 11:33:05;;;;;;;;;;;;;;;-146.02;100.00;65310.94;5074707;28;19931;-63
2023/01/02 11:35:35;;;;;;;;;;;;;;;-146.02;100.00;65310.94;5075232;28;19913;-64
2023/01/02 11:38:01;;;;;;;;;;;;;;;-146.02;100.00;65310.94;5075114;28;19939;-64
2023/01/02 11:40:28;;;;;;;;;;;;;;;-146.02;100.00;65310.94;5074878;28;19916;-64
2023/01/02 11:45:39;;;;;;;;;;;;;;;-146.02;100.00;65310.94;5054788;28;19917;-64
2023/01/02 11:48:16;;;;;;;;;;;;;;;-146.02;100.00;65310.94;5055117;28;19923;-64
2023/01/02 11:50:41;;;;;;;;;;;;;;;-146.02;100.00;65310.94;5055019;28;19990;-64
2023/01/02 11:53:13;;;;;;;;;;;;;;;-146.02;100.00;65310.94;5054748;28;20070;-64
2023/01/02 11:56:00;;;;;;;;;;;;;;;-146.02;100.00;65310.94;5036852;28;20089;-64
2023/01/02 11:58:25;;;;;;;;;;;;;;;-146.02;100.00;65310.94;5071708;28;20369;-64
2023/01/02 12:00:54;;;;;;;;;;;;;;;-146.02;100.00;65310.94;5074841;28;19931;-64
2023/01/02 12:03:23;;;;;;;;;;;;;;;-146.02;100.00;65310.94;5074662;28;20066;-64
2023/01/02 12:06:01;;;;;;;;;;;;;;;-146.02;100.00;65310.94;5074750;28;19913;-64
2023/01/02 12:08:38;;;;;;;;;;;;;;;-146.02;100.00;65310.94;5074568;28;19916;-64
2023/01/02 12:11:09;;;;;;;;;;;;;;;-146.02;100.00;65310.94;5074419;28;20351;-64
2023/01/02 12:13:57;;;;;;;;;;;;;;;-146.02;100.00;65310.94;5084332;28;19947;-64
2023/01/02 12:16:33;;;;;;;;;;;;;;;-146.02;100.00;65310.94;5060584;28;19923;-64
2023/01/02 12:19:04;;;;;;;;;;;;;;;-146.02;100.00;65310.94;5074148;28;19962;-63
2023/01/02 12:21:52;;;;;;;;;;;;;;;-146.02;100.00;65310.94;5074130;28;19920;-64
2023/01/02 12:24:26;;;;;;;;;;;;;;;-146.02;100.00;65310.94;5056294;28;19916;-63
2023/01/02 12:26:57;;;;;;;;;;;;;;;-146.02;100.00;65310.94;5071900;28;19997;-63